sensor_id;sensor_type;location;lat;lon;timestamp;P1;durP1;ratioP1;P2;durP2;ratioP2
22097;SDS011;11215;51.938;8.464;2022-09-09T00:03:36;1.97;;;0.80;;
22097;SDS011;11215;51.938;8.464;2022-09-09T00:06:14;2.70;;;1.23;;
22097;SDS011;11215;51.938;8.464;2022-09-09T00:11:13;2.63;;;1.40;;
22097;SDS011;11215;51.938;8.464;2022-09-09T00:13:49;2.03;;;1.43;;
22097;SDS011;11215;51.938;8.464;2022-09-09T00:16:22;2.83;;;1.00;;
22097;SDS011;11215;51.938;8.464;2022-09-09T00:21:52;3.90;;;1.43;;
22097;SDS011;11215;51.938;8.464;2022-09-09T00:27:23;0.80;;;0.80;;
22097;SDS011;11215;51.938;8.464;2022-09-09T00:30:22;1.30;;;1.20;;
22097;SDS011;11215;51.938;8.464;2022-09-09T00:32:53;2.20;;;1.00;;
22097;SDS011;11215;51.938;8.464;2022-09-09T00:35:33;2.10;;;0.80;;
22097;SDS011;11215;51.938;8.464;2022-09-09T00:38:12;3.40;;;1.00;;
22097;SDS011;11215;51.938;8.464;2022-09-09T00:41:01;2.50;;;1.03;;
22097;SDS011;11215;51.938;8.464;2022-09-09T00:43:32;1.77;;;0.80;;
22097;SDS011;11215;51.938;8.464;2022-09-09T00:49:15;1.67;;;0.90;;
22097;SDS011;11215;51.938;8.464;2022-09-09T00:51:52;2.47;;;1.00;;
22097;SDS011;11215;51.938;8.464;2022-09-09T00:57:38;1.40;;;0.87;;
22097;SDS011;11215;51.938;8.464;2022-09-09T01:05:47;1.43;;;0.90;;
22097;SDS011;11215;51.938;8.464;2022-09-09T01:10:51;1.93;;;1.00;;
22097;SDS011;11215;51.938;8.464;2022-09-09T01:13:26;3.73;;;1.03;;
22097;SDS011;11215;51.938;8.464;2022-09-09T01:16:00;2.10;;;1.17;;
22097;SDS011;11215;51.938;8.464;2022-09-09T01:18:29;1.63;;;1.00;;
22097;SDS011;11215;51.938;8.464;2022-09-09T01:28:58;1.30;;;0.90;;
22097;SDS011;11215;51.938;8.464;2022-09-09T01:31:31;2.13;;;0.83;;
22097;SDS011;11215;51.938;8.464;2022-09-09T01:34:01;2.37;;;0.90;;
22097;SDS011;11215;51.938;8.464;2022-09-09T01:36:32;1.57;;;0.70;;
22097;SDS011;11215;51.938;8.464;2022-09-09T01:39:11;2.37;;;1.10;;
22097;SDS011;11215;51.938;8.464;2022-09-09T01:41:37;1.80;;;1.13;;
22097;SDS011;11215;51.938;8.464;2022-09-09T01:44:03;1.43;;;0.93;;
22097;SDS011;11215;51.938;8.464;2022-09-09T01:46:29;1.90;;;1.03;;
22097;SDS011;11215;51.938;8.464;2022-09-09T01:48:55;1.20;;;0.80;;
22097;SDS011;11215;51.938;8.464;2022-09-09T01:51:23;2.43;;;1.20;;
22097;SDS011;11215;51.938;8.464;2022-09-09T01:53:49;2.60;;;1.17;;
22097;SDS011;11215;51.938;8.464;2022-09-09T02:01:43;1.13;;;0.90;;
22097;SDS011;11215;51.938;8.464;2022-09-09T02:04:34;2.73;;;1.10;;
22097;SDS011;11215;51.938;8.464;2022-09-09T02:07:10;1.63;;;1.03;;
22097;SDS011;11215;51.938;8.464;2022-09-09T02:09:51;1.70;;;1.10;;
22097;SDS011;11215;51.938;8.464;2022-09-09T02:12:40;2.30;;;0.90;;
22097;SDS011;11215;51.938;8.464;2022-09-09T02:18:06;2.17;;;0.77;;
22097;SDS011;11215;51.938;8.464;2022-09-09T02:20:34;1.33;;;0.77;;
22097;SDS011;11215;51.938;8.464;2022-09-09T02:23:04;1.90;;;0.70;;
22097;SDS011;11215;51.938;8.464;2022-09-09T02:25:33;2.33;;;0.93;;
22097;SDS011;11215;51.938;8.464;2022-09-09T02:28:01;1.77;;;1.00;;
22097;SDS011;11215;51.938;8.464;2022-09-09T02:30:31;1.37;;;0.80;;
22097;SDS011;11215;51.938;8.464;2022-09-09T02:32:59;2.93;;;1.00;;
22097;SDS011;11215;51.938;8.464;2022-09-09T02:35:28;3.03;;;1.03;;
22097;SDS011;11215;51.938;8.464;2022-09-09T02:37:58;1.20;;;1.00;;
22097;SDS011;11215;51.938;8.464;2022-09-09T02:40:27;1.50;;;0.90;;
22097;SDS011;11215;51.938;8.464;2022-09-09T02:42:53;2.87;;;1.17;;
22097;SDS011;11215;51.938;8.464;2022-09-09T02:45:20;2.03;;;1.00;;
22097;SDS011;11215;51.938;8.464;2022-09-09T02:50:26;1.13;;;1.03;;
22097;SDS011;11215;51.938;8.464;2022-09-09T02:53:15;1.83;;;1.20;;
22097;SDS011;11215;51.938;8.464;2022-09-09T02:55:57;1.63;;;1.10;;
22097;SDS011;11215;51.938;8.464;2022-09-09T02:58:29;1.93;;;1.07;;
22097;SDS011;11215;51.938;8.464;2022-09-09T03:00:54;2.20;;;1.30;;
22097;SDS011;11215;51.938;8.464;2022-09-09T03:03:22;1.93;;;1.03;;
22097;SDS011;11215;51.938;8.464;2022-09-09T03:05:49;4.87;;;1.40;;
22097;SDS011;11215;51.938;8.464;2022-09-09T03:08:15;3.17;;;1.33;;
22097;SDS011;11215;51.938;8.464;2022-09-09T03:10:42;2.17;;;1.30;;
22097;SDS011;11215;51.938;8.464;2022-09-09T03:13:07;2.47;;;1.23;;
22097;SDS011;11215;51.938;8.464;2022-09-09T03:15:33;3.93;;;1.47;;
22097;SDS011;11215;51.938;8.464;2022-09-09T03:17:59;2.23;;;1.37;;
22097;SDS011;11215;51.938;8.464;2022-09-09T03:20:29;4.10;;;1.53;;
22097;SDS011;11215;51.938;8.464;2022-09-09T03:22:55;1.97;;;1.50;;
22097;SDS011;11215;51.938;8.464;2022-09-09T03:25:22;3.40;;;1.40;;
22097;SDS011;11215;51.938;8.464;2022-09-09T03:27:51;2.43;;;1.37;;
22097;SDS011;11215;51.938;8.464;2022-09-09T03:30:29;3.70;;;1.20;;
22097;SDS011;11215;51.938;8.464;2022-09-09T03:32:54;2.13;;;1.40;;
22097;SDS011;11215;51.938;8.464;2022-09-09T03:35:20;2.50;;;1.40;;
22097;SDS011;11215;51.938;8.464;2022-09-09T03:37:46;2.97;;;1.30;;
22097;SDS011;11215;51.938;8.464;2022-09-09T03:40:11;3.00;;;1.50;;
22097;SDS011;11215;51.938;8.464;2022-09-09T03:42:37;3.00;;;1.40;;
22097;SDS011;11215;51.938;8.464;2022-09-09T03:45:04;2.40;;;1.40;;
22097;SDS011;11215;51.938;8.464;2022-09-09T03:47:32;2.03;;;1.20;;
22097;SDS011;11215;51.938;8.464;2022-09-09T03:49:58;1.60;;;1.30;;
22097;SDS011;11215;51.938;8.464;2022-09-09T03:52:25;1.83;;;1.23;;
22097;SDS011;11215;51.938;8.464;2022-09-09T03:54:51;2.43;;;1.30;;
22097;SDS011;11215;51.938;8.464;2022-09-09T03:57:18;2.93;;;1.30;;
22097;SDS011;11215;51.938;8.464;2022-09-09T03:59:44;2.57;;;1.10;;
22097;SDS011;11215;51.938;8.464;2022-09-09T04:02:09;1.40;;;1.13;;
22097;SDS011;11215;51.938;8.464;2022-09-09T04:04:35;1.37;;;1.27;;
22097;SDS011;11215;51.938;8.464;2022-09-09T04:07:01;1.30;;;1.20;;
22097;SDS011;11215;51.938;8.464;2022-09-09T04:09:27;3.37;;;1.33;;
22097;SDS011;11215;51.938;8.464;2022-09-09T04:11:52;3.10;;;1.30;;
22097;SDS011;11215;51.938;8.464;2022-09-09T04:14:19;3.80;;;1.40;;
22097;SDS011;11215;51.938;8.464;2022-09-09T04:16:45;3.40;;;1.00;;
22097;SDS011;11215;51.938;8.464;2022-09-09T04:19:11;2.20;;;1.33;;
22097;SDS011;11215;51.938;8.464;2022-09-09T04:21:38;3.70;;;1.60;;
22097;SDS011;11215;51.938;8.464;2022-09-09T04:24:05;4.20;;;1.60;;
22097;SDS011;11215;51.938;8.464;2022-09-09T04:26:32;2.13;;;1.50;;
22097;SDS011;11215;51.938;8.464;2022-09-09T04:28:58;2.77;;;1.50;;
22097;SDS011;11215;51.938;8.464;2022-09-09T04:31:23;2.17;;;1.40;;
22097;SDS011;11215;51.938;8.464;2022-09-09T04:33:49;1.70;;;1.30;;
22097;SDS011;11215;51.938;8.464;2022-09-09T04:36:15;3.67;;;1.10;;
22097;SDS011;11215;51.938;8.464;2022-09-09T04:38:43;2.30;;;1.30;;
22097;SDS011;11215;51.938;8.464;2022-09-09T04:41:09;1.80;;;1.10;;
22097;SDS011;11215;51.938;8.464;2022-09-09T04:43:36;1.77;;;1.47;;
22097;SDS011;11215;51.938;8.464;2022-09-09T04:46:02;2.73;;;1.30;;
22097;SDS011;11215;51.938;8.464;2022-09-09T04:48:28;1.70;;;1.33;;
22097;SDS011;11215;51.938;8.464;2022-09-09T04:50:57;4.10;;;1.37;;
22097;SDS011;11215;51.938;8.464;2022-09-09T04:53:24;3.13;;;1.40;;
22097;SDS011;11215;51.938;8.464;2022-09-09T04:55:51;2.37;;;1.50;;
22097;SDS011;11215;51.938;8.464;2022-09-09T04:58:17;1.60;;;1.50;;
22097;SDS011;11215;51.938;8.464;2022-09-09T05:00:43;2.03;;;1.30;;
22097;SDS011;11215;51.938;8.464;2022-09-09T05:03:09;3.03;;;1.47;;
22097;SDS011;11215;51.938;8.464;2022-09-09T05:05:34;3.33;;;1.47;;
22097;SDS011;11215;51.938;8.464;2022-09-09T05:08:02;2.80;;;1.77;;
22097;SDS011;11215;51.938;8.464;2022-09-09T05:10:32;1.80;;;1.60;;
22097;SDS011;11215;51.938;8.464;2022-09-09T05:12:59;2.23;;;1.70;;
22097;SDS011;11215;51.938;8.464;2022-09-09T05:15:24;3.63;;;2.10;;
22097;SDS011;11215;51.938;8.464;2022-09-09T05:17:50;2.33;;;1.80;;
22097;SDS011;11215;51.938;8.464;2022-09-09T05:20:18;2.80;;;2.07;;
22097;SDS011;11215;51.938;8.464;2022-09-09T05:22:43;3.10;;;2.03;;
22097;SDS011;11215;51.938;8.464;2022-09-09T05:25:09;2.73;;;1.63;;
22097;SDS011;11215;51.938;8.464;2022-09-09T05:27:35;2.53;;;1.80;;
22097;SDS011;11215;51.938;8.464;2022-09-09T05:30:00;1.80;;;1.60;;
22097;SDS011;11215;51.938;8.464;2022-09-09T05:32:26;2.17;;;1.70;;
22097;SDS011;11215;51.938;8.464;2022-09-09T05:34:52;2.67;;;1.70;;
22097;SDS011;11215;51.938;8.464;2022-09-09T05:37:18;1.53;;;1.33;;
22097;SDS011;11215;51.938;8.464;2022-09-09T05:39:44;2.47;;;1.70;;
22097;SDS011;11215;51.938;8.464;2022-09-09T05:42:10;2.23;;;1.60;;
22097;SDS011;11215;51.938;8.464;2022-09-09T05:44:35;2.47;;;1.60;;
22097;SDS011;11215;51.938;8.464;2022-09-09T05:47:02;2.33;;;1.90;;
22097;SDS011;11215;51.938;8.464;2022-09-09T05:49:28;2.30;;;1.93;;
22097;SDS011;11215;51.938;8.464;2022-09-09T05:51:53;3.13;;;1.80;;
22097;SDS011;11215;51.938;8.464;2022-09-09T05:54:19;2.87;;;1.60;;
22097;SDS011;11215;51.938;8.464;2022-09-09T05:56:45;1.90;;;1.50;;
22097;SDS011;11215;51.938;8.464;2022-09-09T05:59:11;2.67;;;1.60;;
22097;SDS011;11215;51.938;8.464;2022-09-09T06:01:37;1.97;;;1.77;;
22097;SDS011;11215;51.938;8.464;2022-09-09T06:04:05;2.03;;;1.40;;
22097;SDS011;11215;51.938;8.464;2022-09-09T06:06:31;1.90;;;1.50;;
22097;SDS011;11215;51.938;8.464;2022-09-09T06:09:02;2.70;;;1.47;;
22097;SDS011;11215;51.938;8.464;2022-09-09T06:11:31;3.80;;;1.40;;
22097;SDS011;11215;51.938;8.464;2022-09-09T06:13:58;2.10;;;1.53;;
22097;SDS011;11215;51.938;8.464;2022-09-09T06:16:24;1.97;;;1.53;;
22097;SDS011;11215;51.938;8.464;2022-09-09T06:18:52;3.93;;;2.00;;
22097;SDS011;11215;51.938;8.464;2022-09-09T06:21:20;3.57;;;1.50;;
22097;SDS011;11215;51.938;8.464;2022-09-09T06:23:47;2.97;;;2.00;;
22097;SDS011;11215;51.938;8.464;2022-09-09T06:26:18;3.70;;;1.70;;
22097;SDS011;11215;51.938;8.464;2022-09-09T06:28:49;2.87;;;1.63;;
22097;SDS011;11215;51.938;8.464;2022-09-09T06:31:17;3.30;;;2.00;;
22097;SDS011;11215;51.938;8.464;2022-09-09T06:33:51;3.17;;;1.77;;
22097;SDS011;11215;51.938;8.464;2022-09-09T06:36:25;2.90;;;1.70;;
22097;SDS011;11215;51.938;8.464;2022-09-09T06:38:53;2.90;;;1.60;;
22097;SDS011;11215;51.938;8.464;2022-09-09T06:41:21;5.63;;;1.60;;
22097;SDS011;11215;51.938;8.464;2022-09-09T06:43:48;3.60;;;2.03;;
22097;SDS011;11215;51.938;8.464;2022-09-09T06:46:17;3.23;;;2.10;;
22097;SDS011;11215;51.938;8.464;2022-09-09T06:48:47;2.00;;;1.63;;
22097;SDS011;11215;51.938;8.464;2022-09-09T06:51:18;2.40;;;1.60;;
22097;SDS011;11215;51.938;8.464;2022-09-09T06:53:51;3.23;;;1.63;;
22097;SDS011;11215;51.938;8.464;2022-09-09T06:56:37;3.93;;;1.77;;
22097;SDS011;11215;51.938;8.464;2022-09-09T06:59:07;3.50;;;1.73;;
22097;SDS011;11215;51.938;8.464;2022-09-09T07:01:34;3.23;;;1.83;;
22097;SDS011;11215;51.938;8.464;2022-09-09T07:04:05;3.30;;;1.97;;
22097;SDS011;11215;51.938;8.464;2022-09-09T07:06:36;4.10;;;1.90;;
22097;SDS011;11215;51.938;8.464;2022-09-09T07:09:05;3.40;;;1.60;;
22097;SDS011;11215;51.938;8.464;2022-09-09T07:11:32;3.23;;;1.80;;
22097;SDS011;11215;51.938;8.464;2022-09-09T07:14:06;5.90;;;1.87;;
22097;SDS011;11215;51.938;8.464;2022-09-09T07:16:32;3.73;;;1.83;;
22097;SDS011;11215;51.938;8.464;2022-09-09T07:19:00;3.80;;;2.00;;
22097;SDS011;11215;51.938;8.464;2022-09-09T07:21:28;1.87;;;1.67;;
22097;SDS011;11215;51.938;8.464;2022-09-09T07:23:54;2.77;;;1.80;;
22097;SDS011;11215;51.938;8.464;2022-09-09T07:26:22;2.23;;;1.50;;
22097;SDS011;11215;51.938;8.464;2022-09-09T07:28:50;3.80;;;1.53;;
22097;SDS011;11215;51.938;8.464;2022-09-09T07:31:17;2.57;;;1.60;;
22097;SDS011;11215;51.938;8.464;2022-09-09T07:33:45;3.00;;;1.43;;
22097;SDS011;11215;51.938;8.464;2022-09-09T07:38:44;3.07;;;1.57;;
22097;SDS011;11215;51.938;8.464;2022-09-09T07:41:15;2.80;;;1.60;;
22097;SDS011;11215;51.938;8.464;2022-09-09T07:43:52;2.97;;;1.60;;
22097;SDS011;11215;51.938;8.464;2022-09-09T07:46:22;4.60;;;1.63;;
22097;SDS011;11215;51.938;8.464;2022-09-09T07:48:50;4.13;;;1.73;;
22097;SDS011;11215;51.938;8.464;2022-09-09T07:51:21;6.20;;;2.07;;
22097;SDS011;11215;51.938;8.464;2022-09-09T07:53:53;3.37;;;1.90;;
22097;SDS011;11215;51.938;8.464;2022-09-09T07:56:22;4.67;;;1.80;;
22097;SDS011;11215;51.938;8.464;2022-09-09T07:58:48;5.73;;;1.70;;
22097;SDS011;11215;51.938;8.464;2022-09-09T08:01:20;3.70;;;1.60;;
22097;SDS011;11215;51.938;8.464;2022-09-09T08:03:55;1.53;;;1.20;;
22097;SDS011;11215;51.938;8.464;2022-09-09T08:06:30;5.57;;;1.60;;
22097;SDS011;11215;51.938;8.464;2022-09-09T08:09:03;2.27;;;1.10;;
22097;SDS011;11215;51.938;8.464;2022-09-09T08:11:30;3.73;;;1.20;;
22097;SDS011;11215;51.938;8.464;2022-09-09T08:13:57;3.73;;;1.60;;
22097;SDS011;11215;51.938;8.464;2022-09-09T08:16:25;3.70;;;1.30;;
22097;SDS011;11215;51.938;8.464;2022-09-09T08:18:52;3.20;;;1.33;;
22097;SDS011;11215;51.938;8.464;2022-09-09T08:21:20;4.77;;;1.03;;
22097;SDS011;11215;51.938;8.464;2022-09-09T08:23:49;4.03;;;1.17;;
22097;SDS011;11215;51.938;8.464;2022-09-09T08:26:20;3.27;;;1.17;;
22097;SDS011;11215;51.938;8.464;2022-09-09T08:28:52;2.93;;;1.20;;
22097;SDS011;11215;51.938;8.464;2022-09-09T08:31:20;4.10;;;1.07;;
22097;SDS011;11215;51.938;8.464;2022-09-09T08:33:47;5.47;;;1.23;;
22097;SDS011;11215;51.938;8.464;2022-09-09T08:36:14;1.47;;;0.80;;
22097;SDS011;11215;51.938;8.464;2022-09-09T08:38:48;2.57;;;1.07;;
22097;SDS011;11215;51.938;8.464;2022-09-09T08:44:12;2.23;;;0.90;;
22097;SDS011;11215;51.938;8.464;2022-09-09T08:49:37;2.83;;;1.00;;
22097;SDS011;11215;51.938;8.464;2022-09-09T08:52:24;1.37;;;0.83;;
22097;SDS011;11215;51.938;8.464;2022-09-09T08:54:54;1.50;;;1.10;;
22097;SDS011;11215;51.938;8.464;2022-09-09T08:57:23;2.30;;;1.23;;
22097;SDS011;11215;51.938;8.464;2022-09-09T08:59:52;2.67;;;1.30;;
22097;SDS011;11215;51.938;8.464;2022-09-09T09:10:25;1.80;;;1.00;;
22097;SDS011;11215;51.938;8.464;2022-09-09T09:13:20;3.60;;;0.80;;
22097;SDS011;11215;51.938;8.464;2022-09-09T09:15:55;2.30;;;0.90;;
22097;SDS011;11215;51.938;8.464;2022-09-09T09:18:27;3.90;;;1.10;;
22097;SDS011;11215;51.938;8.464;2022-09-09T09:21:07;3.80;;;0.90;;
22097;SDS011;11215;51.938;8.464;2022-09-09T09:23:56;2.30;;;0.87;;
22097;SDS011;11215;51.938;8.464;2022-09-09T09:26:28;2.23;;;0.90;;
22097;SDS011;11215;51.938;8.464;2022-09-09T09:28:57;2.97;;;0.80;;
22097;SDS011;11215;51.938;8.464;2022-09-09T09:31:25;1.30;;;0.80;;
22097;SDS011;11215;51.938;8.464;2022-09-09T09:33:54;2.10;;;0.83;;
22097;SDS011;11215;51.938;8.464;2022-09-09T09:36:33;2.30;;;1.10;;
22097;SDS011;11215;51.938;8.464;2022-09-09T09:39:30;2.07;;;0.77;;
22097;SDS011;11215;51.938;8.464;2022-09-09T09:42:09;2.50;;;1.03;;
22097;SDS011;11215;51.938;8.464;2022-09-09T09:44:39;3.00;;;0.90;;
22097;SDS011;11215;51.938;8.464;2022-09-09T09:47:15;3.50;;;0.93;;
22097;SDS011;11215;51.938;8.464;2022-09-09T09:49:58;6.63;;;1.20;;
22097;SDS011;11215;51.938;8.464;2022-09-09T09:52:27;2.07;;;1.07;;
22097;SDS011;11215;51.938;8.464;2022-09-09T09:54:55;2.83;;;0.90;;
22097;SDS011;11215;51.938;8.464;2022-09-09T09:57:24;3.40;;;1.10;;
22097;SDS011;11215;51.938;8.464;2022-09-09T10:00:04;2.33;;;0.83;;
22097;SDS011;11215;51.938;8.464;2022-09-09T10:02:42;1.67;;;1.00;;
22097;SDS011;11215;51.938;8.464;2022-09-09T10:07:45;2.03;;;0.77;;
22097;SDS011;11215;51.938;8.464;2022-09-09T10:10:23;4.93;;;1.20;;
22097;SDS011;11215;51.938;8.464;2022-09-09T10:13:18;2.10;;;0.80;;
22097;SDS011;11215;51.938;8.464;2022-09-09T10:21:03;4.03;;;1.00;;
22097;SDS011;11215;51.938;8.464;2022-09-09T10:53:53;5.20;;;1.20;;
22097;SDS011;11215;51.938;8.464;2022-09-09T10:56:50;2.80;;;0.93;;
22097;SDS011;11215;51.938;8.464;2022-09-09T10:59:24;2.40;;;1.10;;
22097;SDS011;11215;51.938;8.464;2022-09-09T11:01:55;1.87;;;0.87;;
22097;SDS011;11215;51.938;8.464;2022-09-09T11:04:26;3.03;;;1.00;;
22097;SDS011;11215;51.938;8.464;2022-09-09T11:07:05;1.80;;;0.93;;
22097;SDS011;11215;51.938;8.464;2022-09-09T11:09:36;3.40;;;1.10;;
22097;SDS011;11215;51.938;8.464;2022-09-09T11:12:06;3.83;;;1.10;;
22097;SDS011;11215;51.938;8.464;2022-09-09T11:14:45;2.53;;;1.27;;
22097;SDS011;11215;51.938;8.464;2022-09-09T11:17:48;2.47;;;0.97;;
22097;SDS011;11215;51.938;8.464;2022-09-09T11:20:17;3.63;;;1.10;;
22097;SDS011;11215;51.938;8.464;2022-09-09T11:22:45;2.73;;;1.07;;
22097;SDS011;11215;51.938;8.464;2022-09-09T11:25:19;3.40;;;0.87;;
22097;SDS011;11215;51.938;8.464;2022-09-09T11:35:50;5.33;;;1.00;;
22097;SDS011;11215;51.938;8.464;2022-09-09T11:41:07;1.53;;;0.80;;
22097;SDS011;11215;51.938;8.464;2022-09-09T11:46:08;2.73;;;1.00;;
22097;SDS011;11215;51.938;8.464;2022-09-09T11:48:36;3.17;;;1.07;;
22097;SDS011;11215;51.938;8.464;2022-09-09T11:51:12;2.30;;;1.00;;
22097;SDS011;11215;51.938;8.464;2022-09-09T11:53:52;1.80;;;0.90;;
22097;SDS011;11215;51.938;8.464;2022-09-09T11:59:05;3.43;;;1.00;;
22097;SDS011;11215;51.938;8.464;2022-09-09T12:01:44;3.07;;;1.17;;
22097;SDS011;11215;51.938;8.464;2022-09-09T12:04:46;2.03;;;1.00;;
22097;SDS011;11215;51.938;8.464;2022-09-09T12:09:43;3.73;;;1.00;;
22097;SDS011;11215;51.938;8.464;2022-09-09T12:12:24;2.27;;;0.60;;
22097;SDS011;11215;51.938;8.464;2022-09-09T12:17:47;1.67;;;0.90;;
22097;SDS011;11215;51.938;8.464;2022-09-09T12:20:37;2.03;;;0.80;;
22097;SDS011;11215;51.938;8.464;2022-09-09T12:31:54;1.33;;;0.70;;
22097;SDS011;11215;51.938;8.464;2022-09-09T12:37:29;2.27;;;0.90;;
22097;SDS011;11215;51.938;8.464;2022-09-09T12:40:06;1.50;;;0.80;;
22097;SDS011;11215;51.938;8.464;2022-09-09T12:42:42;5.07;;;1.00;;
22097;SDS011;11215;51.938;8.464;2022-09-09T12:47:52;1.73;;;0.63;;
22097;SDS011;11215;51.938;8.464;2022-09-09T12:50:22;2.30;;;1.07;;
22097;SDS011;11215;51.938;8.464;2022-09-09T12:52:56;2.80;;;1.17;;
22097;SDS011;11215;51.938;8.464;2022-09-09T12:55:30;1.40;;;0.63;;
22097;SDS011;11215;51.938;8.464;2022-09-09T12:57:58;1.77;;;0.60;;
22097;SDS011;11215;51.938;8.464;2022-09-09T13:00:29;1.30;;;0.83;;
22097;SDS011;11215;51.938;8.464;2022-09-09T13:02:57;1.17;;;0.70;;
22097;SDS011;11215;51.938;8.464;2022-09-09T13:05:28;2.63;;;1.07;;
22097;SDS011;11215;51.938;8.464;2022-09-09T13:08:00;3.10;;;0.80;;
22097;SDS011;11215;51.938;8.464;2022-09-09T13:10:31;3.07;;;0.90;;
22097;SDS011;11215;51.938;8.464;2022-09-09T13:12:59;1.43;;;0.73;;
22097;SDS011;11215;51.938;8.464;2022-09-09T13:15:26;1.93;;;0.77;;
22097;SDS011;11215;51.938;8.464;2022-09-09T13:17:54;6.03;;;0.70;;
22097;SDS011;11215;51.938;8.464;2022-09-09T13:20:26;2.50;;;0.90;;
22097;SDS011;11215;51.938;8.464;2022-09-09T13:22:53;2.87;;;0.73;;
22097;SDS011;11215;51.938;8.464;2022-09-09T13:25:29;1.63;;;0.60;;
22097;SDS011;11215;51.938;8.464;2022-09-09T13:28:00;17.30;;;1.80;;
22097;SDS011;11215;51.938;8.464;2022-09-09T13:35:28;1.53;;;0.70;;
22097;SDS011;11215;51.938;8.464;2022-09-09T13:37:55;2.37;;;0.60;;
22097;SDS011;11215;51.938;8.464;2022-09-09T13:40:21;1.87;;;0.60;;
22097;SDS011;11215;51.938;8.464;2022-09-09T13:42:51;0.77;;;0.47;;
22097;SDS011;11215;51.938;8.464;2022-09-09T13:45:19;1.37;;;0.73;;
22097;SDS011;11215;51.938;8.464;2022-09-09T13:47:46;1.37;;;0.53;;
22097;SDS011;11215;51.938;8.464;2022-09-09T13:50:24;1.63;;;0.60;;
22097;SDS011;11215;51.938;8.464;2022-09-09T13:52:55;0.80;;;0.60;;
22097;SDS011;11215;51.938;8.464;2022-09-09T13:55:28;0.70;;;0.60;;
22097;SDS011;11215;51.938;8.464;2022-09-09T13:57:58;2.20;;;0.50;;
22097;SDS011;11215;51.938;8.464;2022-09-09T14:00:25;1.57;;;0.50;;
22097;SDS011;11215;51.938;8.464;2022-09-09T14:02:51;1.43;;;0.50;;
22097;SDS011;11215;51.938;8.464;2022-09-09T14:05:19;1.13;;;0.70;;
22097;SDS011;11215;51.938;8.464;2022-09-09T14:07:47;0.87;;;0.60;;
22097;SDS011;11215;51.938;8.464;2022-09-09T14:10:13;4.20;;;0.63;;
22097;SDS011;11215;51.938;8.464;2022-09-09T14:12:39;2.83;;;0.77;;
22097;SDS011;11215;51.938;8.464;2022-09-09T14:15:05;2.60;;;0.90;;
22097;SDS011;11215;51.938;8.464;2022-09-09T14:17:32;0.50;;;0.43;;
22097;SDS011;11215;51.938;8.464;2022-09-09T14:19:58;1.20;;;0.50;;
22097;SDS011;11215;51.938;8.464;2022-09-09T14:22:24;1.53;;;0.60;;
22097;SDS011;11215;51.938;8.464;2022-09-09T14:24:51;1.70;;;0.60;;
22097;SDS011;11215;51.938;8.464;2022-09-09T14:27:17;2.47;;;0.70;;
22097;SDS011;11215;51.938;8.464;2022-09-09T14:29:43;0.97;;;0.60;;
22097;SDS011;11215;51.938;8.464;2022-09-09T14:32:10;0.60;;;0.40;;
22097;SDS011;11215;51.938;8.464;2022-09-09T14:34:36;2.00;;;0.80;;
22097;SDS011;11215;51.938;8.464;2022-09-09T14:37:02;2.53;;;0.67;;
22097;SDS011;11215;51.938;8.464;2022-09-09T14:39:27;2.27;;;0.90;;
22097;SDS011;11215;51.938;8.464;2022-09-09T14:41:53;3.07;;;0.80;;
22097;SDS011;11215;51.938;8.464;2022-09-09T14:44:18;1.60;;;0.70;;
22097;SDS011;11215;51.938;8.464;2022-09-09T14:46:44;1.80;;;0.80;;
22097;SDS011;11215;51.938;8.464;2022-09-09T14:49:10;2.30;;;0.90;;
22097;SDS011;11215;51.938;8.464;2022-09-09T14:51:37;1.10;;;0.80;;
22097;SDS011;11215;51.938;8.464;2022-09-09T14:54:03;4.13;;;0.77;;
22097;SDS011;11215;51.938;8.464;2022-09-09T14:56:30;0.93;;;0.60;;
22097;SDS011;11215;51.938;8.464;2022-09-09T14:58:57;1.50;;;0.60;;
22097;SDS011;11215;51.938;8.464;2022-09-09T15:01:25;1.57;;;0.70;;
22097;SDS011;11215;51.938;8.464;2022-09-09T15:03:58;2.30;;;0.70;;
22097;SDS011;11215;51.938;8.464;2022-09-09T15:06:26;2.00;;;0.60;;
22097;SDS011;11215;51.938;8.464;2022-09-09T15:08:54;2.67;;;0.60;;
22097;SDS011;11215;51.938;8.464;2022-09-09T15:11:22;2.60;;;0.73;;
22097;SDS011;11215;51.938;8.464;2022-09-09T15:13:50;0.87;;;0.70;;
22097;SDS011;11215;51.938;8.464;2022-09-09T15:16:19;1.07;;;0.60;;
22097;SDS011;11215;51.938;8.464;2022-09-09T15:18:49;1.30;;;0.77;;
22097;SDS011;11215;51.938;8.464;2022-09-09T15:21:18;3.10;;;0.63;;
22097;SDS011;11215;51.938;8.464;2022-09-09T15:23:46;0.50;;;0.50;;
22097;SDS011;11215;51.938;8.464;2022-09-09T15:26:12;2.30;;;0.67;;
22097;SDS011;11215;51.938;8.464;2022-09-09T15:28:42;1.03;;;0.60;;
22097;SDS011;11215;51.938;8.464;2022-09-09T15:31:13;0.70;;;0.60;;
22097;SDS011;11215;51.938;8.464;2022-09-09T15:33:46;1.63;;;0.80;;
22097;SDS011;11215;51.938;8.464;2022-09-09T15:36:25;1.83;;;0.73;;
22097;SDS011;11215;51.938;8.464;2022-09-09T15:38:53;3.13;;;1.33;;
22097;SDS011;11215;51.938;8.464;2022-09-09T15:41:20;0.83;;;0.70;;
22097;SDS011;11215;51.938;8.464;2022-09-09T15:43:47;2.00;;;0.93;;
22097;SDS011;11215;51.938;8.464;2022-09-09T15:51:31;0.63;;;0.50;;
22097;SDS011;11215;51.938;8.464;2022-09-09T15:53:57;0.60;;;0.60;;
22097;SDS011;11215;51.938;8.464;2022-09-09T15:56:24;1.13;;;0.70;;
22097;SDS011;11215;51.938;8.464;2022-09-09T15:58:52;1.03;;;0.70;;
22097;SDS011;11215;51.938;8.464;2022-09-09T16:01:18;3.33;;;0.80;;
22097;SDS011;11215;51.938;8.464;2022-09-09T16:03:44;1.40;;;0.60;;
22097;SDS011;11215;51.938;8.464;2022-09-09T16:06:15;1.83;;;0.90;;
22097;SDS011;11215;51.938;8.464;2022-09-09T16:08:42;2.07;;;0.67;;
22097;SDS011;11215;51.938;8.464;2022-09-09T16:13:39;3.57;;;0.90;;
22097;SDS011;11215;51.938;8.464;2022-09-09T16:16:05;2.90;;;0.90;;
22097;SDS011;11215;51.938;8.464;2022-09-09T16:18:45;1.33;;;0.63;;
22097;SDS011;11215;51.938;8.464;2022-09-09T16:21:17;1.83;;;0.80;;
22097;SDS011;11215;51.938;8.464;2022-09-09T16:23:45;1.00;;;0.80;;
22097;SDS011;11215;51.938;8.464;2022-09-09T16:26:11;1.77;;;0.90;;
22097;SDS011;11215;51.938;8.464;2022-09-09T16:28:38;0.93;;;0.60;;
22097;SDS011;11215;51.938;8.464;2022-09-09T16:31:08;1.87;;;0.80;;
22097;SDS011;11215;51.938;8.464;2022-09-09T16:33:44;2.23;;;0.80;;
22097;SDS011;11215;51.938;8.464;2022-09-09T16:36:12;3.03;;;1.10;;
22097;SDS011;11215;51.938;8.464;2022-09-09T16:38:40;2.53;;;0.70;;
22097;SDS011;11215;51.938;8.464;2022-09-09T16:41:08;1.10;;;0.77;;
22097;SDS011;11215;51.938;8.464;2022-09-09T16:43:35;1.83;;;0.70;;
22097;SDS011;11215;51.938;8.464;2022-09-09T16:46:02;1.80;;;0.90;;
22097;SDS011;11215;51.938;8.464;2022-09-09T16:48:32;1.60;;;0.87;;
22097;SDS011;11215;51.938;8.464;2022-09-09T16:51:08;2.10;;;0.70;;
22097;SDS011;11215;51.938;8.464;2022-09-09T16:53:39;2.13;;;0.80;;
22097;SDS011;11215;51.938;8.464;2022-09-09T16:56:08;4.17;;;0.80;;
22097;SDS011;11215;51.938;8.464;2022-09-09T16:58:34;2.03;;;0.80;;
22097;SDS011;11215;51.938;8.464;2022-09-09T17:01:01;3.70;;;0.97;;
22097;SDS011;11215;51.938;8.464;2022-09-09T17:03:28;1.80;;;0.73;;
22097;SDS011;11215;51.938;8.464;2022-09-09T17:05:54;1.07;;;0.50;;
22097;SDS011;11215;51.938;8.464;2022-09-09T17:08:20;1.03;;;0.60;;
22097;SDS011;11215;51.938;8.464;2022-09-09T17:10:45;1.13;;;0.50;;
22097;SDS011;11215;51.938;8.464;2022-09-09T17:13:12;1.20;;;0.60;;
22097;SDS011;11215;51.938;8.464;2022-09-09T17:15:41;1.80;;;0.50;;
22097;SDS011;11215;51.938;8.464;2022-09-09T17:18:11;0.73;;;0.60;;
22097;SDS011;11215;51.938;8.464;2022-09-09T17:20:38;1.93;;;0.60;;
22097;SDS011;11215;51.938;8.464;2022-09-09T17:23:08;1.50;;;0.80;;
22097;SDS011;11215;51.938;8.464;2022-09-09T17:25:35;1.30;;;0.67;;
22097;SDS011;11215;51.938;8.464;2022-09-09T17:28:01;1.33;;;0.50;;
22097;SDS011;11215;51.938;8.464;2022-09-09T17:30:29;0.80;;;0.43;;
22097;SDS011;11215;51.938;8.464;2022-09-09T17:33:05;0.60;;;0.60;;